sensor_id;sensor_type;location;lat;lon;timestamp;P1;durP1;ratioP1;P2;durP2;ratioP2
37451;SDS011;23314;51.114;6.900;2022-10-16T00:00:44;3.63;;;2.30;;
37451;SDS011;23314;51.114;6.900;2022-10-16T00:03:10;4.27;;;2.50;;
37451;SDS011;23314;51.114;6.900;2022-10-16T00:05:40;5.47;;;2.10;;
37451;SDS011;23314;51.114;6.900;2022-10-16T00:08:07;3.93;;;2.60;;
37451;SDS011;23314;51.114;6.900;2022-10-16T00:10:33;3.87;;;2.27;;
37451;SDS011;23314;51.114;6.900;2022-10-16T00:12:59;3.27;;;2.47;;
37451;SDS011;23314;51.114;6.900;2022-10-16T00:15:24;3.17;;;2.73;;
37451;SDS011;23314;51.114;6.900;2022-10-16T00:17:50;3.33;;;2.40;;
37451;SDS011;23314;51.114;6.900;2022-10-16T00:20:15;3.97;;;2.67;;
37451;SDS011;23314;51.114;6.900;2022-10-16T00:22:42;3.37;;;2.83;;
37451;SDS011;23314;51.114;6.900;2022-10-16T00:25:14;3.10;;;2.60;;
37451;SDS011;23314;51.114;6.900;2022-10-16T00:27:40;2.77;;;2.17;;
37451;SDS011;23314;51.114;6.900;2022-10-16T00:30:05;3.90;;;2.83;;
37451;SDS011;23314;51.114;6.900;2022-10-16T00:32:33;2.70;;;2.50;;
37451;SDS011;23314;51.114;6.900;2022-10-16T00:34:58;3.00;;;2.53;;
37451;SDS011;23314;51.114;6.900;2022-10-16T00:37:23;3.60;;;2.73;;
37451;SDS011;23314;51.114;6.900;2022-10-16T00:39:49;2.60;;;2.33;;
37451;SDS011;23314;51.114;6.900;2022-10-16T00:42:15;2.67;;;2.33;;
37451;SDS011;23314;51.114;6.900;2022-10-16T00:44:48;4.33;;;2.23;;
37451;SDS011;23314;51.114;6.900;2022-10-16T00:49:47;4.07;;;2.50;;
37451;SDS011;23314;51.114;6.900;2022-10-16T00:52:16;3.07;;;2.70;;
37451;SDS011;23314;51.114;6.900;2022-10-16T00:54:42;2.90;;;2.70;;
37451;SDS011;23314;51.114;6.900;2022-10-16T00:57:08;6.67;;;2.60;;
37451;SDS011;23314;51.114;6.900;2022-10-16T00:59:35;3.17;;;2.90;;
37451;SDS011;23314;51.114;6.900;2022-10-16T01:02:03;3.13;;;2.63;;
37451;SDS011;23314;51.114;6.900;2022-10-16T01:04:32;2.30;;;2.17;;
37451;SDS011;23314;51.114;6.900;2022-10-16T01:13:09;2.63;;;2.43;;
37451;SDS011;23314;51.114;6.900;2022-10-16T01:15:40;2.70;;;2.50;;
37451;SDS011;23314;51.114;6.900;2022-10-16T01:20:54;6.63;;;2.60;;
37451;SDS011;23314;51.114;6.900;2022-10-16T01:26:15;3.17;;;2.70;;
37451;SDS011;23314;51.114;6.900;2022-10-16T01:28:53;4.23;;;2.80;;
37451;SDS011;23314;51.114;6.900;2022-10-16T01:31:24;2.60;;;2.40;;
37451;SDS011;23314;51.114;6.900;2022-10-16T01:36:46;2.97;;;2.73;;
37451;SDS011;23314;51.114;6.900;2022-10-16T01:39:20;5.30;;;2.40;;
37451;SDS011;23314;51.114;6.900;2022-10-16T01:42:13;4.50;;;2.77;;
37451;SDS011;23314;51.114;6.900;2022-10-16T01:44:41;2.47;;;2.37;;
37451;SDS011;23314;51.114;6.900;2022-10-16T01:47:10;3.07;;;2.53;;
37451;SDS011;23314;51.114;6.900;2022-10-16T01:49:38;3.70;;;3.03;;
37451;SDS011;23314;51.114;6.900;2022-10-16T01:52:06;4.80;;;3.20;;
37451;SDS011;23314;51.114;6.900;2022-10-16T01:54:37;4.17;;;3.10;;
37451;SDS011;23314;51.114;6.900;2022-10-16T01:57:05;3.30;;;3.00;;
37451;SDS011;23314;51.114;6.900;2022-10-16T01:59:33;5.20;;;2.97;;
37451;SDS011;23314;51.114;6.900;2022-10-16T02:02:04;3.47;;;3.17;;
37451;SDS011;23314;51.114;6.900;2022-10-16T02:04:36;3.67;;;3.37;;
37451;SDS011;23314;51.114;6.900;2022-10-16T02:07:04;4.63;;;3.10;;
37451;SDS011;23314;51.114;6.900;2022-10-16T02:09:30;3.27;;;3.07;;
37451;SDS011;23314;51.114;6.900;2022-10-16T02:11:59;4.27;;;2.90;;
37451;SDS011;23314;51.114;6.900;2022-10-16T02:14:28;2.93;;;2.60;;
37451;SDS011;23314;51.114;6.900;2022-10-16T02:16:54;3.33;;;3.13;;
37451;SDS011;23314;51.114;6.900;2022-10-16T02:19:20;6.47;;;2.77;;
37451;SDS011;23314;51.114;6.900;2022-10-16T02:26:57;2.60;;;2.40;;
37451;SDS011;23314;51.114;6.900;2022-10-16T02:29:31;2.60;;;2.30;;
37451;SDS011;23314;51.114;6.900;2022-10-16T02:32:00;2.40;;;2.20;;
37451;SDS011;23314;51.114;6.900;2022-10-16T02:34:30;2.97;;;2.53;;
37451;SDS011;23314;51.114;6.900;2022-10-16T02:36:57;2.50;;;2.30;;
37451;SDS011;23314;51.114;6.900;2022-10-16T02:39:24;4.43;;;2.30;;
37451;SDS011;23314;51.114;6.900;2022-10-16T02:41:52;2.93;;;2.30;;
37451;SDS011;23314;51.114;6.900;2022-10-16T02:44:17;2.90;;;2.33;;
37451;SDS011;23314;51.114;6.900;2022-10-16T02:46:42;3.13;;;2.43;;
37451;SDS011;23314;51.114;6.900;2022-10-16T02:49:08;1.93;;;1.83;;
37451;SDS011;23314;51.114;6.900;2022-10-16T02:51:33;4.73;;;2.30;;
37451;SDS011;23314;51.114;6.900;2022-10-16T02:53:59;2.43;;;2.23;;
37451;SDS011;23314;51.114;6.900;2022-10-16T02:56:24;2.30;;;2.10;;
37451;SDS011;23314;51.114;6.900;2022-10-16T02:58:49;3.03;;;1.80;;
37451;SDS011;23314;51.114;6.900;2022-10-16T03:01:15;2.20;;;1.90;;
37451;SDS011;23314;51.114;6.900;2022-10-16T03:03:41;3.57;;;2.20;;
37451;SDS011;23314;51.114;6.900;2022-10-16T03:06:07;5.53;;;1.93;;
37451;SDS011;23314;51.114;6.900;2022-10-16T03:08:32;2.83;;;1.87;;
37451;SDS011;23314;51.114;6.900;2022-10-16T03:10:58;2.20;;;2.00;;
37451;SDS011;23314;51.114;6.900;2022-10-16T03:13:23;2.13;;;2.03;;
37451;SDS011;23314;51.114;6.900;2022-10-16T03:15:48;3.10;;;1.87;;
37451;SDS011;23314;51.114;6.900;2022-10-16T03:18:14;3.20;;;1.90;;
37451;SDS011;23314;51.114;6.900;2022-10-16T03:20:39;1.70;;;1.60;;
37451;SDS011;23314;51.114;6.900;2022-10-16T03:23:05;3.53;;;1.73;;
37451;SDS011;23314;51.114;6.900;2022-10-16T03:25:31;1.93;;;1.70;;
37451;SDS011;23314;51.114;6.900;2022-10-16T03:27:57;2.87;;;1.70;;
37451;SDS011;23314;51.114;6.900;2022-10-16T03:30:22;1.57;;;1.47;;
37451;SDS011;23314;51.114;6.900;2022-10-16T03:32:48;1.90;;;1.80;;
37451;SDS011;23314;51.114;6.900;2022-10-16T03:35:13;2.07;;;1.83;;
37451;SDS011;23314;51.114;6.900;2022-10-16T03:37:38;1.87;;;1.60;;
37451;SDS011;23314;51.114;6.900;2022-10-16T03:40:04;1.63;;;1.53;;
37451;SDS011;23314;51.114;6.900;2022-10-16T03:42:30;1.30;;;1.30;;
37451;SDS011;23314;51.114;6.900;2022-10-16T03:44:55;1.67;;;1.47;;
37451;SDS011;23314;51.114;6.900;2022-10-16T03:47:20;2.37;;;1.80;;
37451;SDS011;23314;51.114;6.900;2022-10-16T03:49:48;3.70;;;1.40;;
37451;SDS011;23314;51.114;6.900;2022-10-16T03:52:14;2.43;;;1.30;;
37451;SDS011;23314;51.114;6.900;2022-10-16T03:54:39;1.60;;;1.50;;
37451;SDS011;23314;51.114;6.900;2022-10-16T03:57:05;3.20;;;1.63;;
37451;SDS011;23314;51.114;6.900;2022-10-16T03:59:30;1.97;;;1.50;;
37451;SDS011;23314;51.114;6.900;2022-10-16T04:01:55;1.37;;;1.30;;
37451;SDS011;23314;51.114;6.900;2022-10-16T04:04:21;2.40;;;1.40;;
37451;SDS011;23314;51.114;6.900;2022-10-16T04:06:46;1.73;;;1.40;;
37451;SDS011;23314;51.114;6.900;2022-10-16T04:09:12;2.20;;;1.87;;
37451;SDS011;23314;51.114;6.900;2022-10-16T04:11:37;1.73;;;1.37;;
37451;SDS011;23314;51.114;6.900;2022-10-16T04:14:03;1.43;;;1.40;;
37451;SDS011;23314;51.114;6.900;2022-10-16T04:16:28;1.60;;;1.50;;
37451;SDS011;23314;51.114;6.900;2022-10-16T04:18:53;2.43;;;1.37;;
37451;SDS011;23314;51.114;6.900;2022-10-16T04:21:19;1.20;;;1.17;;
37451;SDS011;23314;51.114;6.900;2022-10-16T04:23:44;1.93;;;1.10;;
37451;SDS011;23314;51.114;6.900;2022-10-16T04:26:09;3.43;;;1.50;;
37451;SDS011;23314;51.114;6.900;2022-10-16T04:28:35;3.60;;;1.50;;
37451;SDS011;23314;51.114;6.900;2022-10-16T04:31:03;2.50;;;1.50;;
37451;SDS011;23314;51.114;6.900;2022-10-16T04:33:29;1.30;;;1.30;;
37451;SDS011;23314;51.114;6.900;2022-10-16T04:35:58;4.63;;;1.77;;
37451;SDS011;23314;51.114;6.900;2022-10-16T04:38:25;2.13;;;1.27;;
37451;SDS011;23314;51.114;6.900;2022-10-16T04:40:51;1.43;;;1.43;;
37451;SDS011;23314;51.114;6.900;2022-10-16T04:43:16;2.33;;;1.17;;
37451;SDS011;23314;51.114;6.900;2022-10-16T04:45:42;2.03;;;1.40;;
37451;SDS011;23314;51.114;6.900;2022-10-16T04:48:07;3.70;;;1.30;;
37451;SDS011;23314;51.114;6.900;2022-10-16T04:50:32;2.10;;;1.50;;
37451;SDS011;23314;51.114;6.900;2022-10-16T04:52:58;1.93;;;1.37;;
37451;SDS011;23314;51.114;6.900;2022-10-16T04:55:23;2.33;;;1.50;;
37451;SDS011;23314;51.114;6.900;2022-10-16T04:57:48;1.50;;;1.40;;
37451;SDS011;23314;51.114;6.900;2022-10-16T05:00:14;2.97;;;1.40;;
37451;SDS011;23314;51.114;6.900;2022-10-16T05:02:40;1.30;;;1.30;;
37451;SDS011;23314;51.114;6.900;2022-10-16T05:05:05;2.40;;;1.20;;
37451;SDS011;23314;51.114;6.900;2022-10-16T05:07:31;1.60;;;1.50;;
37451;SDS011;23314;51.114;6.900;2022-10-16T05:09:56;1.53;;;1.40;;
37451;SDS011;23314;51.114;6.900;2022-10-16T05:12:21;2.00;;;1.60;;
37451;SDS011;23314;51.114;6.900;2022-10-16T05:14:47;1.80;;;1.70;;
37451;SDS011;23314;51.114;6.900;2022-10-16T05:17:12;1.53;;;1.43;;
37451;SDS011;23314;51.114;6.900;2022-10-16T05:19:37;1.80;;;1.70;;
37451;SDS011;23314;51.114;6.900;2022-10-16T05:22:03;2.53;;;1.50;;
37451;SDS011;23314;51.114;6.900;2022-10-16T05:24:28;1.87;;;1.70;;
37451;SDS011;23314;51.114;6.900;2022-10-16T05:26:54;4.63;;;1.60;;
37451;SDS011;23314;51.114;6.900;2022-10-16T05:29:19;2.87;;;1.83;;
37451;SDS011;23314;51.114;6.900;2022-10-16T05:31:44;1.80;;;1.70;;
37451;SDS011;23314;51.114;6.900;2022-10-16T05:34:10;1.97;;;1.80;;
37451;SDS011;23314;51.114;6.900;2022-10-16T05:36:35;1.93;;;1.83;;
37451;SDS011;23314;51.114;6.900;2022-10-16T05:39:00;2.37;;;1.77;;
37451;SDS011;23314;51.114;6.900;2022-10-16T05:41:26;1.87;;;1.70;;
37451;SDS011;23314;51.114;6.900;2022-10-16T05:43:52;2.90;;;1.80;;
37451;SDS011;23314;51.114;6.900;2022-10-16T05:46:17;4.03;;;1.83;;
37451;SDS011;23314;51.114;6.900;2022-10-16T05:48:43;1.87;;;1.77;;
37451;SDS011;23314;51.114;6.900;2022-10-16T05:51:10;3.80;;;2.40;;
37451;SDS011;23314;51.114;6.900;2022-10-16T05:53:37;2.40;;;2.30;;
37451;SDS011;23314;51.114;6.900;2022-10-16T05:56:04;2.40;;;2.20;;
37451;SDS011;23314;51.114;6.900;2022-10-16T05:58:32;3.13;;;2.00;;
37451;SDS011;23314;51.114;6.900;2022-10-16T06:01:00;3.57;;;2.00;;
37451;SDS011;23314;51.114;6.900;2022-10-16T06:03:28;2.10;;;2.00;;
37451;SDS011;23314;51.114;6.900;2022-10-16T06:05:53;2.30;;;2.10;;
37451;SDS011;23314;51.114;6.900;2022-10-16T06:08:20;2.43;;;2.20;;
37451;SDS011;23314;51.114;6.900;2022-10-16T06:10:46;4.83;;;2.30;;
37451;SDS011;23314;51.114;6.900;2022-10-16T06:13:12;2.90;;;2.43;;
37451;SDS011;23314;51.114;6.900;2022-10-16T06:15:38;6.43;;;2.17;;
37451;SDS011;23314;51.114;6.900;2022-10-16T06:18:07;2.47;;;2.23;;
37451;SDS011;23314;51.114;6.900;2022-10-16T06:20:33;2.57;;;2.47;;
37451;SDS011;23314;51.114;6.900;2022-10-16T06:22:58;4.70;;;1.90;;
37451;SDS011;23314;51.114;6.900;2022-10-16T06:25:24;2.50;;;2.30;;
37451;SDS011;23314;51.114;6.900;2022-10-16T06:27:49;4.20;;;2.20;;
37451;SDS011;23314;51.114;6.900;2022-10-16T06:30:15;5.17;;;2.47;;
37451;SDS011;23314;51.114;6.900;2022-10-16T06:32:40;2.90;;;2.70;;
37451;SDS011;23314;51.114;6.900;2022-10-16T06:35:06;7.43;;;2.40;;
37451;SDS011;23314;51.114;6.900;2022-10-16T06:37:31;3.60;;;2.37;;
37451;SDS011;23314;51.114;6.900;2022-10-16T06:39:57;6.10;;;2.43;;
37451;SDS011;23314;51.114;6.900;2022-10-16T06:42:22;4.90;;;2.23;;
37451;SDS011;23314;51.114;6.900;2022-10-16T06:44:48;2.60;;;2.40;;
37451;SDS011;23314;51.114;6.900;2022-10-16T06:47:13;2.70;;;2.50;;
37451;SDS011;23314;51.114;6.900;2022-10-16T06:49:39;3.73;;;2.67;;
37451;SDS011;23314;51.114;6.900;2022-10-16T06:52:04;3.13;;;2.20;;
37451;SDS011;23314;51.114;6.900;2022-10-16T06:54:30;8.73;;;3.17;;
37451;SDS011;23314;51.114;6.900;2022-10-16T06:56:55;4.43;;;2.30;;
37451;SDS011;23314;51.114;6.900;2022-10-16T06:59:21;3.27;;;2.07;;
37451;SDS011;23314;51.114;6.900;2022-10-16T07:01:47;3.37;;;2.27;;
37451;SDS011;23314;51.114;6.900;2022-10-16T07:04:12;2.30;;;2.10;;
37451;SDS011;23314;51.114;6.900;2022-10-16T07:06:38;2.53;;;2.40;;
37451;SDS011;23314;51.114;6.900;2022-10-16T07:09:04;3.77;;;2.60;;
37451;SDS011;23314;51.114;6.900;2022-10-16T07:11:32;5.73;;;2.37;;
37451;SDS011;23314;51.114;6.900;2022-10-16T07:13:57;2.17;;;2.00;;
37451;SDS011;23314;51.114;6.900;2022-10-16T07:16:24;3.63;;;2.70;;
37451;SDS011;23314;51.114;6.900;2022-10-16T07:18:53;3.90;;;2.50;;
37451;SDS011;23314;51.114;6.900;2022-10-16T07:21:23;3.23;;;2.93;;
37451;SDS011;23314;51.114;6.900;2022-10-16T07:23:54;3.00;;;2.80;;
37451;SDS011;23314;51.114;6.900;2022-10-16T07:26:22;4.80;;;2.53;;
37451;SDS011;23314;51.114;6.900;2022-10-16T07:28:48;3.70;;;3.00;;
37451;SDS011;23314;51.114;6.900;2022-10-16T07:31:15;3.63;;;3.30;;
37451;SDS011;23314;51.114;6.900;2022-10-16T07:33:42;5.50;;;3.10;;
37451;SDS011;23314;51.114;6.900;2022-10-16T07:36:11;5.30;;;2.60;;
37451;SDS011;23314;51.114;6.900;2022-10-16T07:38:38;6.53;;;3.00;;
37451;SDS011;23314;51.114;6.900;2022-10-16T07:41:05;2.00;;;1.90;;
37451;SDS011;23314;51.114;6.900;2022-10-16T07:43:32;2.50;;;2.23;;
37451;SDS011;23314;51.114;6.900;2022-10-16T07:45:58;4.10;;;2.27;;
37451;SDS011;23314;51.114;6.900;2022-10-16T07:48:26;2.50;;;1.90;;
37451;SDS011;23314;51.114;6.900;2022-10-16T07:51:00;3.93;;;1.80;;
37451;SDS011;23314;51.114;6.900;2022-10-16T07:53:27;3.43;;;1.90;;
37451;SDS011;23314;51.114;6.900;2022-10-16T07:55:57;2.43;;;1.50;;
37451;SDS011;23314;51.114;6.900;2022-10-16T07:58:26;2.93;;;1.77;;
37451;SDS011;23314;51.114;6.900;2022-10-16T08:00:52;1.77;;;1.50;;
37451;SDS011;23314;51.114;6.900;2022-10-16T08:03:18;3.17;;;1.40;;
37451;SDS011;23314;51.114;6.900;2022-10-16T08:05:43;1.50;;;1.40;;
37451;SDS011;23314;51.114;6.900;2022-10-16T08:08:11;1.67;;;1.30;;
37451;SDS011;23314;51.114;6.900;2022-10-16T08:10:41;3.83;;;2.10;;
37451;SDS011;23314;51.114;6.900;2022-10-16T08:13:07;2.17;;;1.40;;
37451;SDS011;23314;51.114;6.900;2022-10-16T08:15:32;1.03;;;1.03;;
37451;SDS011;23314;51.114;6.900;2022-10-16T08:17:59;2.27;;;1.40;;
37451;SDS011;23314;51.114;6.900;2022-10-16T08:20:29;1.33;;;1.20;;
37451;SDS011;23314;51.114;6.900;2022-10-16T08:22:55;3.67;;;1.23;;
37451;SDS011;23314;51.114;6.900;2022-10-16T08:25:22;2.13;;;1.10;;
37451;SDS011;23314;51.114;6.900;2022-10-16T08:27:48;3.50;;;1.40;;
37451;SDS011;23314;51.114;6.900;2022-10-16T08:30:15;4.80;;;1.57;;
37451;SDS011;23314;51.114;6.900;2022-10-16T08:32:41;3.43;;;1.50;;
37451;SDS011;23314;51.114;6.900;2022-10-16T08:35:08;1.90;;;1.40;;
37451;SDS011;23314;51.114;6.900;2022-10-16T08:37:35;2.97;;;1.40;;
37451;SDS011;23314;51.114;6.900;2022-10-16T08:40:01;2.50;;;1.40;;
37451;SDS011;23314;51.114;6.900;2022-10-16T08:45:32;2.47;;;1.30;;
37451;SDS011;23314;51.114;6.900;2022-10-16T08:48:10;1.37;;;1.23;;
37451;SDS011;23314;51.114;6.900;2022-10-16T08:50:43;3.30;;;1.40;;
37451;SDS011;23314;51.114;6.900;2022-10-16T08:53:31;2.23;;;1.10;;
37451;SDS011;23314;51.114;6.900;2022-10-16T08:56:03;1.30;;;1.20;;
37451;SDS011;23314;51.114;6.900;2022-10-16T08:58:29;1.30;;;1.10;;
37451;SDS011;23314;51.114;6.900;2022-10-16T09:00:56;7.37;;;1.70;;
37451;SDS011;23314;51.114;6.900;2022-10-16T09:03:46;2.10;;;1.60;;
37451;SDS011;23314;51.114;6.900;2022-10-16T09:06:26;3.07;;;1.40;;
37451;SDS011;23314;51.114;6.900;2022-10-16T09:09:14;2.77;;;1.20;;
37451;SDS011;23314;51.114;6.900;2022-10-16T09:15:19;3.17;;;1.50;;
37451;SDS011;23314;51.114;6.900;2022-10-16T09:20:25;3.10;;;1.30;;
37451;SDS011;23314;51.114;6.900;2022-10-16T09:23:08;3.13;;;1.00;;
37451;SDS011;23314;51.114;6.900;2022-10-16T09:25:39;1.20;;;1.00;;
37451;SDS011;23314;51.114;6.900;2022-10-16T09:28:07;3.80;;;1.40;;
37451;SDS011;23314;51.114;6.900;2022-10-16T09:30:34;2.43;;;1.07;;
37451;SDS011;23314;51.114;6.900;2022-10-16T09:32:59;2.20;;;0.90;;
37451;SDS011;23314;51.114;6.900;2022-10-16T09:35:32;1.63;;;1.07;;
37451;SDS011;23314;51.114;6.900;2022-10-16T09:38:02;1.30;;;1.10;;
37451;SDS011;23314;51.114;6.900;2022-10-16T09:40:34;2.13;;;1.10;;
37451;SDS011;23314;51.114;6.900;2022-10-16T09:43:03;1.27;;;1.17;;
37451;SDS011;23314;51.114;6.900;2022-10-16T09:45:39;1.17;;;0.90;;
37451;SDS011;23314;51.114;6.900;2022-10-16T09:48:11;2.20;;;1.13;;
37451;SDS011;23314;51.114;6.900;2022-10-16T09:50:38;1.20;;;1.02;;
37451;SDS011;23314;51.114;6.900;2022-10-16T09:53:13;2.10;;;0.98;;
37451;SDS011;23314;51.114;6.900;2022-10-16T09:55:49;2.40;;;1.20;;
37451;SDS011;23314;51.114;6.900;2022-10-16T09:58:16;2.42;;;1.23;;
37451;SDS011;23314;51.114;6.900;2022-10-16T10:00:42;2.90;;;1.17;;
37451;SDS011;23314;51.114;6.900;2022-10-16T10:06:19;1.70;;;1.40;;
37451;SDS011;23314;51.114;6.900;2022-10-16T10:09:05;2.25;;;1.30;;
37451;SDS011;23314;51.114;6.900;2022-10-16T10:11:38;2.15;;;1.45;;
37451;SDS011;23314;51.114;6.900;2022-10-16T10:14:09;3.42;;;1.30;;
37451;SDS011;23314;51.114;6.900;2022-10-16T10:16:38;1.42;;;0.90;;
37451;SDS011;23314;51.114;6.900;2022-10-16T10:19:04;1.70;;;1.00;;
37451;SDS011;23314;51.114;6.900;2022-10-16T10:21:29;1.05;;;0.95;;
37451;SDS011;23314;51.114;6.900;2022-10-16T10:23:58;3.25;;;1.20;;
37451;SDS011;23314;51.114;6.900;2022-10-16T10:26:25;1.20;;;1.10;;
37451;SDS011;23314;51.114;6.900;2022-10-16T10:29:00;1.85;;;1.17;;
37451;SDS011;23314;51.114;6.900;2022-10-16T10:31:44;2.05;;;1.10;;
37451;SDS011;23314;51.114;6.900;2022-10-16T10:40:02;2.58;;;1.35;;
37451;SDS011;23314;51.114;6.900;2022-10-16T10:42:55;1.83;;;1.10;;
37451;SDS011;23314;51.114;6.900;2022-10-16T10:45:48;2.10;;;1.27;;
37451;SDS011;23314;51.114;6.900;2022-10-16T10:51:19;2.70;;;1.08;;
37451;SDS011;23314;51.114;6.900;2022-10-16T10:54:03;5.45;;;1.27;;
37451;SDS011;23314;51.114;6.900;2022-10-16T10:56:43;3.55;;;1.38;;
37451;SDS011;23314;51.114;6.900;2022-10-16T11:01:56;2.83;;;1.40;;
37451;SDS011;23314;51.114;6.900;2022-10-16T11:07:02;3.47;;;1.13;;
37451;SDS011;23314;51.114;6.900;2022-10-16T11:12:29;2.45;;;1.00;;
37451;SDS011;23314;51.114;6.900;2022-10-16T11:15:15;2.05;;;1.02;;
37451;SDS011;23314;51.114;6.900;2022-10-16T11:17:46;2.70;;;1.35;;
37451;SDS011;23314;51.114;6.900;2022-10-16T11:20:21;2.60;;;1.00;;
37451;SDS011;23314;51.114;6.900;2022-10-16T11:25:53;2.67;;;1.20;;
37451;SDS011;23314;51.114;6.900;2022-10-16T11:28:24;2.55;;;1.08;;
37451;SDS011;23314;51.114;6.900;2022-10-16T11:37:04;1.65;;;0.85;;
37451;SDS011;23314;51.114;6.900;2022-10-16T11:39:22;0.70;;;0.70;;
37451;SDS011;23314;51.114;6.900;2022-10-16T11:41:51;2.53;;;0.90;;
37451;SDS011;23314;51.114;6.900;2022-10-16T11:55:41;2.20;;;0.85;;
37451;SDS011;23314;51.114;6.900;2022-10-16T11:58:14;1.92;;;0.80;;
37451;SDS011;23314;51.114;6.900;2022-10-16T12:03:25;3.90;;;1.27;;
37451;SDS011;23314;51.114;6.900;2022-10-16T12:06:06;3.40;;;0.90;;
37451;SDS011;23314;51.114;6.900;2022-10-16T12:08:34;1.08;;;0.88;;
37451;SDS011;23314;51.114;6.900;2022-10-16T12:11:07;1.25;;;1.05;;
37451;SDS011;23314;51.114;6.900;2022-10-16T12:16:38;2.38;;;1.00;;
37451;SDS011;23314;51.114;6.900;2022-10-16T12:19:15;2.92;;;1.05;;
37451;SDS011;23314;51.114;6.900;2022-10-16T12:21:42;1.25;;;1.13;;
37451;SDS011;23314;51.114;6.900;2022-10-16T12:24:22;3.40;;;1.15;;
37451;SDS011;23314;51.114;6.900;2022-10-16T12:26:56;3.40;;;1.17;;
37451;SDS011;23314;51.114;6.900;2022-10-16T12:31:53;1.70;;;1.25;;
37451;SDS011;23314;51.114;6.900;2022-10-16T12:36:53;4.53;;;1.20;;
37451;SDS011;23314;51.114;6.900;2022-10-16T12:39:24;2.40;;;1.00;;
37451;SDS011;23314;51.114;6.900;2022-10-16T12:42:02;1.75;;;0.82;;
37451;SDS011;23314;51.114;6.900;2022-10-16T12:44:35;2.35;;;1.00;;
37451;SDS011;23314;51.114;6.900;2022-10-16T12:47:02;1.33;;;1.00;;
37451;SDS011;23314;51.114;6.900;2022-10-16T12:49:36;2.45;;;1.00;;
37451;SDS011;23314;51.114;6.900;2022-10-16T12:52:22;1.20;;;1.10;;
37451;SDS011;23314;51.114;6.900;2022-10-16T12:54:51;4.45;;;1.25;;
37451;SDS011;23314;51.114;6.900;2022-10-16T13:00:12;3.63;;;0.88;;
37451;SDS011;23314;51.114;6.900;2022-10-16T13:05:28;2.25;;;1.58;;
37451;SDS011;23314;51.114;6.900;2022-10-16T13:16:35;4.07;;;1.02;;
37451;SDS011;23314;51.114;6.900;2022-10-16T13:19:37;0.90;;;0.80;;
37451;SDS011;23314;51.114;6.900;2022-10-16T13:22:19;0.80;;;0.70;;
37451;SDS011;23314;51.114;6.900;2022-10-16T13:30:28;1.67;;;0.77;;
37451;SDS011;23314;51.114;6.900;2022-10-16T13:33:00;2.80;;;0.88;;
37451;SDS011;23314;51.114;6.900;2022-10-16T13:35:31;1.35;;;0.77;;
37451;SDS011;23314;51.114;6.900;2022-10-16T13:40:30;1.48;;;1.00;;
37451;SDS011;23314;51.114;6.900;2022-10-16T13:42:56;1.15;;;1.00;;
37451;SDS011;23314;51.114;6.900;2022-10-16T13:45:25;2.00;;;1.67;;
37451;SDS011;23314;51.114;6.900;2022-10-16T13:48:01;1.10;;;1.00;;
37451;SDS011;23314;51.114;6.900;2022-10-16T13:50:27;1.33;;;0.70;;
37451;SDS011;23314;51.114;6.900;2022-10-16T13:53:02;2.40;;;0.70;;
37451;SDS011;23314;51.114;6.900;2022-10-16T13:55:28;4.85;;;1.25;;
37451;SDS011;23314;51.114;6.900;2022-10-16T13:58:03;0.77;;;0.70;;
37451;SDS011;23314;51.114;6.900;2022-10-16T14:00:30;1.02;;;0.80;;
37451;SDS011;23314;51.114;6.900;2022-10-16T14:03:07;1.92;;;0.70;;
37451;SDS011;23314;51.114;6.900;2022-10-16T14:05:42;0.88;;;0.73;;
37451;SDS011;23314;51.114;6.900;2022-10-16T14:08:14;2.42;;;1.65;;
37451;SDS011;23314;51.114;6.900;2022-10-16T14:10:40;1.27;;;0.90;;
37451;SDS011;23314;51.114;6.900;2022-10-16T14:13:06;2.15;;;1.20;;
37451;SDS011;23314;51.114;6.900;2022-10-16T14:15:33;1.42;;;1.00;;
37451;SDS011;23314;51.114;6.900;2022-10-16T14:18:00;2.90;;;0.85;;
37451;SDS011;23314;51.114;6.900;2022-10-16T14:20:27;3.30;;;0.93;;
37451;SDS011;23314;51.114;6.900;2022-10-16T14:23:02;0.80;;;0.80;;
37451;SDS011;23314;51.114;6.900;2022-10-16T14:25:30;2.60;;;0.75;;
37451;SDS011;23314;51.114;6.900;2022-10-16T14:28:29;2.42;;;0.70;;
37451;SDS011;23314;51.114;6.900;2022-10-16T14:30:52;2.95;;;0.82;;
37451;SDS011;23314;51.114;6.900;2022-10-16T14:33:30;1.95;;;0.90;;
37451;SDS011;23314;51.114;6.900;2022-10-16T14:36:00;3.85;;;0.90;;
37451;SDS011;23314;51.114;6.900;2022-10-16T14:38:34;1.23;;;0.70;;
37451;SDS011;23314;51.114;6.900;2022-10-16T14:41:01;3.80;;;0.80;;
37451;SDS011;23314;51.114;6.900;2022-10-16T14:43:31;0.63;;;0.63;;
37451;SDS011;23314;51.114;6.900;2022-10-16T14:46:01;1.60;;;1.02;;
37451;SDS011;23314;51.114;6.900;2022-10-16T14:48:29;1.73;;;0.98;;
37451;SDS011;23314;51.114;6.900;2022-10-16T14:50:55;1.88;;;1.02;;
37451;SDS011;23314;51.114;6.900;2022-10-16T14:53:20;13.05;;;1.13;;
37451;SDS011;23314;51.114;6.900;2022-10-16T14:55:46;1.55;;;1.00;;
37451;SDS011;23314;51.114;6.900;2022-10-16T14:58:13;1.08;;;0.90;;
37451;SDS011;23314;51.114;6.900;2022-10-16T15:00:41;1.77;;;1.15;;
37451;SDS011;23314;51.114;6.900;2022-10-16T15:03:07;2.15;;;0.80;;
37451;SDS011;23314;51.114;6.900;2022-10-16T15:05:32;4.38;;;0.90;;
37451;SDS011;23314;51.114;6.900;2022-10-16T15:07:57;1.50;;;1.23;;
37451;SDS011;23314;51.114;6.900;2022-10-16T15:10:23;2.58;;;1.10;;
37451;SDS011;23314;51.114;6.900;2022-10-16T15:12:51;1.60;;;0.90;;
37451;SDS011;23314;51.114;6.900;2022-10-16T15:17:48;2.40;;;0.88;;
37451;SDS011;23314;51.114;6.900;2022-10-16T15:20:25;2.20;;;0.93;;
37451;SDS011;23314;51.114;6.900;2022-10-16T15:22:55;0.93;;;0.85;;
37451;SDS011;23314;51.114;6.900;2022-10-16T15:28:13;1.00;;;0.82;;
37451;SDS011;23314;51.114;6.900;2022-10-16T15:30:39;2.25;;;1.30;;
37451;SDS011;23314;51.114;6.900;2022-10-16T15:33:08;1.77;;;1.17;;
37451;SDS011;23314;51.114;6.900;2022-10-16T15:35:38;1.40;;;0.90;;
37451;SDS011;23314;51.114;6.900;2022-10-16T15:38:03;1.15;;;1.00;;
37451;SDS011;23314;51.114;6.900;2022-10-16T15:40:29;1.33;;;1.02;;
37451;SDS011;23314;51.114;6.900;2022-10-16T15:42:57;1.20;;;1.10;;
37451;SDS011;23314;51.114;6.900;2022-10-16T15:45:22;1.52;;;0.85;;
37451;SDS011;23314;51.114;6.900;2022-10-16T15:47:48;2.25;;;1.00;;
37451;SDS011;23314;51.114;6.900;2022-10-16T15:50:14;2.55;;;1.20;;
37451;SDS011;23314;51.114;6.900;2022-10-16T15:52:41;0.95;;;0.90;;
37451;SDS011;23314;51.114;6.900;2022-10-16T15:55:08;1.02;;;0.80;;
37451;SDS011;23314;51.114;6.900;2022-10-16T15:57:35;1.83;;;1.10;;
37451;SDS011;23314;51.114;6.900;2022-10-16T16:00:04;0.95;;;0.90;;
37451;SDS011;23314;51.114;6.900;2022-10-16T16:02:31;1.40;;;1.00;;
37451;SDS011;23314;51.114;6.900;2022-10-16T16:04:56;5.57;;;1.20;;
37451;SDS011;23314;51.114;6.900;2022-10-16T16:07:22;1.15;;;1.00;;
37451;SDS011;23314;51.114;6.900;2022-10-16T16:09:47;3.05;;;1.10;;
37451;SDS011;23314;51.114;6.900;2022-10-16T16:12:13;1.30;;;1.20;;
37451;SDS011;23314;51.114;6.900;2022-10-16T16:14:38;1.38;;;1.05;;
37451;SDS011;23314;51.114;6.900;2022-10-16T16:17:03;0.98;;;0.90;;
37451;SDS011;23314;51.114;6.900;2022-10-16T16:19:29;1.55;;;1.10;;
37451;SDS011;23314;51.114;6.900;2022-10-16T16:21:54;1.83;;;1.27;;
37451;SDS011;23314;51.114;6.900;2022-10-16T16:24:21;5.28;;;1.10;;
37451;SDS011;23314;51.114;6.900;2022-10-16T16:26:46;1.48;;;1.00;;
37451;SDS011;23314;51.114;6.900;2022-10-16T16:29:12;1.27;;;1.00;;
37451;SDS011;23314;51.114;6.900;2022-10-16T16:31:39;3.72;;;1.05;;
37451;SDS011;23314;51.114;6.900;2022-10-16T16:34:05;2.83;;;1.30;;
37451;SDS011;23314;51.114;6.900;2022-10-16T16:36:30;2.15;;;1.10;;
37451;SDS011;23314;51.114;6.900;2022-10-16T16:38:57;2.92;;;1.27;;
37451;SDS011;23314;51.114;6.900;2022-10-16T16:41:24;4.68;;;1.60;;
37451;SDS011;23314;51.114;6.900;2022-10-16T16:43:53;4.13;;;1.58;;
37451;SDS011;23314;51.114;6.900;2022-10-16T16:46:24;1.10;;;1.02;;